Time;durP1;ratioP1;P1;durP2;ratioP2;P2;SDS_P1;SDS_P2;PMS_P1;PMS_P2;Temp;Humidity;BMP_temperature;BMP_pressure;BME280_temperature;BME280_humidity;BME280_pressure;Samples;Min_cycle;Max_cycle;Signal;HPM_P1;HPM_P2
2022/11/01 00:01:26;;;;;;;;;3.50;2.00;;;;;17.68;62.93;100495.88;4991147;28;45492;-63
2022/11/01 00:03:52;;;;;;;;;4.25;3.00;;;;;17.50;63.13;100465.75;5006195;28;45547;-59
2022/11/01 00:06:17;;;;;;;;;1.00;1.00;;;;;17.64;62.35;100510.50;4981784;28;46074;-59
2022/11/01 00:08:43;;;;;;;;;1.00;1.00;;;;;17.59;61.64;100516.88;4975626;28;45788;-64
2022/11/01 00:11:11;;;;;;;;;1.00;1.00;;;;;17.61;61.27;100515.50;4942082;28;46061;-63
2022/11/01 00:13:36;;;;;;;;;3.60;1.00;;;;;17.50;61.34;100515.69;4987369;28;45542;-64
2022/11/01 00:16:02;;;;;;;;;10.25;9.00;;;;;17.58;60.45;100532.69;4991364;28;45374;-63
2022/11/01 00:18:27;;;;;;;;;4.00;3.00;;;;;17.56;59.89;100534.88;4971238;28;45718;-63
2022/11/01 00:20:52;;;;;;;;;0.00;0.00;;;;;17.53;59.56;100540.97;4970447;28;45482;-63
2022/11/01 00:23:18;;;;;;;;;1.00;1.00;;;;;17.52;59.62;100538.44;4971471;28;45445;-65
2022/11/01 00:25:43;;;;;;;;;2.75;1.00;;;;;17.50;59.61;100533.16;4970010;28;45492;-63
2022/11/01 00:28:09;;;;;;;;;1.75;1.00;;;;;17.47;59.66;100545.59;4971147;28;46031;-63
2022/11/01 00:30:44;;;;;;;;;0.00;0.00;;;;;17.34;58.95;100549.66;4969571;28;45389;-61
2022/11/01 00:33:10;;;;;;;;;3.40;3.40;;;;;17.30;59.02;100553.22;4984899;28;45608;-63
2022/11/01 00:35:38;;;;;;;;;2.00;1.00;;;;;16.99;58.86;100512.13;4992523;28;45420;-72
2022/11/01 00:38:05;;;;;;;;;3.60;2.40;;;;;17.22;58.67;100562.03;4976192;28;46664;-62
2022/11/01 00:40:30;;;;;;;;;3.80;1.60;;;;;17.15;59.02;100556.69;4994127;28;45519;-62
2022/11/01 00:42:56;;;;;;;;;2.75;1.50;;;;;17.21;58.74;100586.13;4993107;28;45307;-63
2022/11/01 00:45:21;;;;;;;;;1.50;1.50;;;;;17.17;58.49;100585.81;4994712;28;45154;-61
2022/11/01 00:47:47;;;;;;;;;5.75;5.50;;;;;17.16;58.57;100583.31;4994704;28;46319;-60
2022/11/01 00:50:12;;;;;;;;;2.00;2.00;;;;;17.15;57.96;100592.72;4992728;28;45432;-60
2022/11/01 00:52:38;;;;;;;;;2.25;1.00;;;;;17.09;57.93;100588.22;4994898;28;45277;-62
2022/11/01 00:55:04;;;;;;;;;0.50;0.00;;;;;17.08;58.10;100598.47;4994492;28;45212;-60
2022/11/01 00:57:29;;;;;;;;;1.00;1.00;;;;;16.74;57.77;100554.22;4996506;28;47309;-62
2022/11/01 00:59:55;;;;;;;;;1.50;0.50;;;;;16.92;57.62;100605.75;4997762;28;45426;-60
2022/11/01 01:02:20;;;;;;;;;0.75;0.75;;;;;16.89;57.05;100604.31;4998051;28;45365;-62
2022/11/01 01:04:47;;;;;;;;;1.75;1.00;;;;;16.71;56.16;100616.53;4998401;28;45455;-61
2022/11/01 01:07:13;;;;;;;;;2.00;0.60;;;;;16.67;56.19;100623.69;4997378;28;46636;-62
2022/11/01 01:09:38;;;;;;;;;0.75;0.75;;;;;16.03;56.35;100540.00;4996713;28;45290;-61
2022/11/01 01:12:04;;;;;;;;;0.00;0.00;;;;;16.52;56.45;100619.63;4996823;28;45313;-62
2022/11/01 01:14:30;;;;;;;;;0.00;0.00;;;;;16.66;56.58;100642.25;4983291;28;45212;-59
2022/11/01 01:16:56;;;;;;;;;2.75;0.00;;;;;16.60;56.61;100646.03;4993203;28;45332;-60
2022/11/01 01:19:21;;;;;;;;;0.00;0.00;;;;;16.65;56.65;100648.88;4961006;28;45428;-60
2022/11/01 01:21:46;;;;;;;;;2.00;2.00;;;;;16.66;56.56;100650.56;4978247;28;45304;-59
2022/11/01 01:24:12;;;;;;;;;4.00;2.00;;;;;16.55;56.46;100654.28;4977864;28;45547;-60
2022/11/01 01:26:37;;;;;;;;;0.00;0.00;;;;;16.46;56.86;100650.25;4977936;28;46319;-59
2022/11/01 01:29:03;;;;;;;;;5.00;2.00;;;;;16.29;56.55;100625.34;4978108;28;45437;-60
2022/11/01 01:31:28;;;;;;;;;2.00;0.00;;;;;16.37;56.66;100653.47;4976632;28;45494;-60
2022/11/01 01:33:56;;;;;;;;;3.00;1.25;;;;;16.38;56.83;100668.13;4977743;28;45484;-60
2022/11/01 01:36:21;;;;;;;;;1.80;0.80;;;;;16.15;56.49;100631.25;4976256;28;45752;-60
2022/11/01 01:38:49;;;;;;;;;1.00;1.00;;;;;16.23;56.88;100679.84;4977762;28;45384;-60
2022/11/01 01:44:00;;;;;;;;;0.00;0.00;;;;;16.18;56.99;100676.97;4978040;28;45349;-60
2022/11/01 01:46:25;;;;;;;;;1.00;1.00;;;;;15.78;56.77;100623.38;4976086;28;46007;-60
2022/11/01 01:48:53;;;;;;;;;2.00;0.00;;;;;15.95;56.50;100656.66;4977612;28;45290;-59
2022/11/01 01:51:20;;;;;;;;;3.20;0.00;;;;;16.19;56.68;100701.66;4976185;28;45346;-59
2022/11/01 01:53:51;;;;;;;;;0.00;0.00;;;;;16.16;56.06;100706.84;4976391;28;45617;-61
2022/11/01 01:56:19;;;;;;;;;1.00;1.00;;;;;16.10;56.10;100700.38;4975965;28;47432;-60
2022/11/01 01:58:47;;;;;;;;;3.40;0.60;;;;;16.04;55.94;100710.53;4960298;28;45511;-62
2022/11/01 02:01:12;;;;;;;;;0.00;0.00;;;;;16.07;56.54;100723.84;4976308;28;45426;-62
2022/11/01 02:03:38;;;;;;;;;0.00;0.00;;;;;16.03;56.19;100717.16;4977842;28;45233;-61
2022/11/01 02:06:09;;;;;;;;;0.00;0.00;;;;;16.02;55.82;100725.69;4959387;28;45789;-61
2022/11/01 02:08:34;;;;;;;;;1.80;0.60;;;;;15.99;56.24;100735.34;4976120;28;45557;-62
2022/11/01 02:11:01;;;;;;;;;0.00;0.00;;;;;15.99;55.83;100732.56;4976147;28;45400;-61
2022/11/01 02:13:28;;;;;;;;;1.00;0.00;;;;;15.95;56.09;100739.72;4976081;28;45406;-62
2022/11/01 02:16:08;;;;;;;;;0.00;0.00;;;;;15.92;56.39;100745.72;4976705;28;47001;-62
2022/11/01 02:18:40;;;;;;;;;1.00;1.00;;;;;15.97;56.40;100749.41;4989348;28;45686;-60
2022/11/01 02:21:12;;;;;;;;;1.00;1.00;;;;;15.74;56.21;100716.31;5028023;28;45221;-61
2022/11/01 02:24:02;;;;;;;;;2.00;0.00;;;;;15.93;56.62;100756.56;5012176;28;45470;-61
2022/11/01 02:26:30;;;;;;;;;2.20;0.40;;;;;15.74;56.91;100730.97;4996417;28;46411;-61
2022/11/01 02:29:14;;;;;;;;;1.40;0.00;;;;;15.90;56.50;100764.47;4996595;28;45461;-61
2022/11/01 02:32:08;;;;;;;;;1.00;0.00;;;;;15.87;57.10;100776.88;4996997;28;45400;-60
2022/11/01 02:34:35;;;;;;;;;1.20;1.00;;;;;15.61;57.00;100789.34;4994449;28;45415;-61
2022/11/01 02:37:11;;;;;;;;;2.00;0.20;;;;;15.50;57.59;100780.84;4995358;28;45698;-61
2022/11/01 02:39:39;;;;;;;;;0.20;0.20;;;;;15.58;56.98;100786.00;4995800;28;45508;-61
2022/11/01 02:42:18;;;;;;;;;0.40;0.00;;;;;15.56;57.04;100782.63;4995305;28;45450;-61
2022/11/01 02:44:47;;;;;;;;;0.60;0.60;;;;;15.11;57.06;100736.31;4979845;28;45847;-61
2022/11/01 02:47:13;;;;;;;;;3.20;0.80;;;;;15.41;56.92;100769.31;4991075;28;46079;-61
2022/11/01 02:49:43;;;;;;;;;3.25;1.00;;;;;15.56;56.87;100795.63;5011569;28;46238;-61
2022/11/01 02:52:14;;;;;;;;;0.00;0.00;;;;;15.48;56.55;100793.25;4996204;28;45324;-61
2022/11/01 02:54:43;;;;;;;;;2.60;0.00;;;;;15.41;56.59;100799.75;4995149;28;45593;-61
2022/11/01 02:57:19;;;;;;;;;1.00;1.00;;;;;15.34;56.57;100803.72;4995978;28;45413;-61
2022/11/01 02:59:46;;;;;;;;;1.00;1.00;;;;;14.42;57.01;100672.31;4996173;28;45356;-61
2022/11/01 03:02:38;;;;;;;;;0.20;0.00;;;;;15.15;57.24;100787.25;4996237;28;45422;-61
2022/11/01 03:05:29;;;;;;;;;0.20;0.00;;;;;15.21;57.58;100808.41;4981091;28;45843;-61
2022/11/01 03:08:00;;;;;;;;;1.60;0.00;;;;;15.10;57.09;100809.28;4994801;28;45813;-61
2022/11/01 03:10:49;;;;;;;;;0.00;0.00;;;;;15.22;57.52;100818.41;4994841;28;45405;-61
2022/11/01 03:13:31;;;;;;;;;0.00;0.00;;;;;15.29;57.61;100818.25;4994575;28;45347;-61
2022/11/01 03:16:21;;;;;;;;;2.00;0.00;;;;;15.32;57.21;100824.16;4995203;28;45472;-61
2022/11/01 03:19:25;;;;;;;;;1.00;1.00;;;;;15.35;57.45;100822.81;4984197;28;45322;-61
2022/11/01 03:22:04;;;;;;;;;2.20;1.00;;;;;15.36;57.43;100832.81;4975450;28;45355;-61
2022/11/01 03:24:42;;;;;;;;;1.00;0.00;;;;;15.37;57.36;100837.25;4976721;28;45348;-61
2022/11/01 03:27:14;;;;;;;;;2.00;1.00;;;;;15.32;57.42;100842.69;4974984;28;45638;-62
2022/11/01 03:29:39;;;;;;;;;2.00;1.00;;;;;15.12;57.39;100796.03;4975142;28;46475;-62
2022/11/01 03:32:05;;;;;;;;;2.75;1.00;;;;;15.30;57.03;100842.06;4974775;28;45395;-62
2022/11/01 03:34:31;;;;;;;;;0.00;0.00;;;;;15.28;57.02;100842.31;4958449;28;45498;-62
2022/11/01 03:37:04;;;;;;;;;0.00;0.00;;;;;15.06;56.89;100808.06;4958761;28;45563;-61
2022/11/01 03:39:37;;;;;;;;;3.20;1.00;;;;;15.19;56.97;100846.53;4974439;28;46350;-61
2022/11/01 03:42:04;;;;;;;;;1.60;1.40;;;;;15.22;57.88;100851.59;4958428;28;45585;-61
2022/11/01 03:44:36;;;;;;;;;4.20;3.60;;;;;15.23;58.01;100850.50;4974500;28;45394;-61
2022/11/01 03:47:02;;;;;;;;;2.60;2.60;;;;;15.28;57.75;100845.09;4976205;28;45470;-61
2022/11/01 03:49:27;;;;;;;;;1.50;1.50;;;;;15.25;58.05;100864.91;4958070;28;46487;-61
2022/11/01 03:51:53;;;;;;;;;3.00;3.00;;;;;15.24;57.18;100863.22;4974215;28;45492;-60
2022/11/01 03:54:18;;;;;;;;;2.75;2.00;;;;;15.23;57.59;100869.00;4974429;28;45406;-61
2022/11/01 03:56:44;;;;;;;;;7.75;3.50;;;;;15.11;58.09;100878.13;4975479;28;45766;-61
2022/11/01 03:59:10;;;;;;;;;3.80;2.40;;;;;15.11;57.93;100891.13;4975630;28;46607;-61
2022/11/01 04:01:35;;;;;;;;;2.25;1.25;;;;;15.02;58.07;100887.84;4975469;28;45446;-61
2022/11/01 04:04:01;;;;;;;;;0.00;0.00;;;;;14.98;58.10;100890.25;4974762;28;45319;-61
2022/11/01 04:06:26;;;;;;;;;1.00;1.00;;;;;15.07;57.99;100900.94;4974178;28;45475;-62
2022/11/01 04:08:52;;;;;;;;;7.75;3.25;;;;;15.03;58.07;100897.81;4975828;28;45980;-61
2022/11/01 04:11:17;;;;;;;;;0.25;0.25;;;;;15.00;57.76;100901.09;4974055;28;45588;-61
2022/11/01 04:13:43;;;;;;;;;2.00;0.00;;;;;15.07;58.13;100914.78;4975446;28;45393;-61
2022/11/01 04:21:39;;;;;;;;;2.00;1.00;;;;;15.02;58.18;100930.16;4994845;28;45303;-61
2022/11/01 04:24:05;;;;;;;;;1.00;0.00;;;;;14.94;58.25;100927.72;4994930;28;45338;-61
2022/11/01 04:26:30;;;;;;;;;2.25;1.00;;;;;15.02;58.28;100941.22;4995171;28;45355;-61
2022/11/01 04:28:56;;;;;;;;;2.25;0.75;;;;;14.97;58.07;100951.28;5026598;28;46839;-61
2022/11/01 04:31:27;;;;;;;;;1.25;0.00;;;;;14.73;57.84;100921.63;4995053;28;45390;-61
2022/11/01 04:33:54;;;;;;;;;1.00;0.20;;;;;14.93;57.72;100953.69;4972429;28;45404;-61
2022/11/01 04:36:19;;;;;;;;;1.80;0.00;;;;;14.97;57.80;100956.81;4993858;28;45353;-61
2022/11/01 04:38:48;;;;;;;;;1.25;1.25;;;;;15.00;58.09;100970.19;4996404;28;46035;-63
2022/11/01 04:41:16;;;;;;;;;0.80;0.00;;;;;14.80;57.33;100946.44;4981124;28;45882;-61
2022/11/01 04:43:41;;;;;;;;;2.60;1.00;;;;;14.97;57.36;100978.91;4998437;28;45369;-61
2022/11/01 04:46:07;;;;;;;;;1.50;1.00;;;;;14.58;57.40;100926.75;4998693;28;45489;-61
2022/11/01 04:48:32;;;;;;;;;1.00;1.00;;;;;14.92;57.73;100979.63;4998338;28;46214;-61
2022/11/01 04:50:59;;;;;;;;;2.00;0.75;;;;;14.58;57.63;100926.75;4998060;28;45410;-61
2022/11/01 04:53:25;;;;;;;;;2.40;0.60;;;;;14.94;57.98;100990.47;4997007;28;45286;-62
2022/11/01 04:55:50;;;;;;;;;3.00;0.00;;;;;14.93;57.74;100981.31;4996550;28;45380;-61
2022/11/01 04:58:16;;;;;;;;;2.25;1.00;;;;;14.89;58.13;100988.41;4998432;28;45439;-61
2022/11/01 05:00:42;;;;;;;;;1.50;1.50;;;;;14.76;58.20;100968.19;4996794;28;45519;-62
2022/11/01 05:03:08;;;;;;;;;1.60;1.60;;;;;14.85;58.57;100988.03;4997885;28;45453;-62
2022/11/01 05:05:34;;;;;;;;;4.20;2.00;;;;;14.60;58.97;100954.97;4997223;28;45583;-63
2022/11/01 05:08:10;;;;;;;;;2.75;2.00;;;;;14.66;59.46;100978.91;4996604;28;46305;-62
2022/11/01 05:10:37;;;;;;;;;2.40;2.20;;;;;14.77;59.41;101010.44;4998158;28;45385;-62
2022/11/01 05:13:04;;;;;;;;;3.00;1.00;;;;;14.73;59.43;101007.28;4996206;28;45354;-61
2022/11/01 05:15:29;;;;;;;;;4.80;1.20;;;;;14.70;59.55;101006.91;4996940;28;45507;-63
2022/11/01 05:17:55;;;;;;;;;1.75;1.00;;;;;14.67;59.78;101007.38;4997638;28;46385;-62
2022/11/01 05:20:21;;;;;;;;;1.00;0.00;;;;;14.70;59.65;101016.03;5013171;28;45263;-63
2022/11/01 05:22:47;;;;;;;;;2.00;1.75;;;;;14.62;59.26;101014.44;4997551;28;45371;-62
2022/11/01 05:25:13;;;;;;;;;1.60;1.00;;;;;14.68;59.84;101017.34;4997981;28;45483;-62
2022/11/01 05:27:38;;;;;;;;;1.25;0.50;;;;;14.67;59.73;101023.97;4996275;28;45770;-61
2022/11/01 05:30:04;;;;;;;;;1.50;1.00;;;;;14.59;59.78;101031.50;4997245;28;45420;-64
2022/11/01 05:32:30;;;;;;;;;0.00;0.00;;;;;14.60;59.56;101030.41;4997413;28;45307;-61
2022/11/01 05:34:56;;;;;;;;;2.00;1.00;;;;;14.53;60.41;101031.56;4997913;28;45382;-62
2022/11/01 05:37:21;;;;;;;;;2.00;1.00;;;;;14.49;60.33;101039.47;4996319;28;46921;-61
2022/11/01 05:39:47;;;;;;;;;2.00;2.00;;;;;14.46;60.66;101040.75;4997410;28;45381;-61
2022/11/01 05:42:12;;;;;;;;;7.50;2.00;;;;;14.47;60.56;101050.72;4996829;28;45405;-61
2022/11/01 05:44:38;;;;;;;;;2.00;0.00;;;;;14.50;60.22;101044.75;4997619;28;45453;-61
2022/11/01 05:47:03;;;;;;;;;4.00;1.00;;;;;14.37;60.52;101022.84;4996988;28;45420;-61
2022/11/01 05:49:32;;;;;;;;;2.75;1.00;;;;;14.51;60.21;101045.59;4997133;28;45263;-61
2022/11/01 05:51:57;;;;;;;;;3.80;2.80;;;;;14.49;60.36;101051.38;4997264;28;45398;-62
2022/11/01 05:54:23;;;;;;;;;3.25;2.25;;;;;14.50;60.41;101052.19;4997079;28;45922;-61
2022/11/01 05:56:48;;;;;;;;;2.25;2.00;;;;;14.41;60.41;101043.38;4997276;28;46230;-62
2022/11/01 05:59:14;;;;;;;;;3.75;1.25;;;;;14.40;60.50;101055.50;4997117;28;45417;-62
2022/11/01 06:01:39;;;;;;;;;1.50;1.00;;;;;14.37;60.41;101058.72;4997219;28;45390;-61
2022/11/01 06:04:05;;;;;;;;;2.00;0.50;;;;;14.18;60.75;101019.22;4997062;28;45481;-62
2022/11/01 06:06:31;;;;;;;;;5.00;1.00;;;;;14.40;61.02;101063.78;5011947;28;47406;-61
2022/11/01 06:08:56;;;;;;;;;3.00;0.75;;;;;14.38;60.89;101063.16;5028611;28;45617;-62
2022/11/01 06:11:23;;;;;;;;;6.25;1.25;;;;;14.31;61.01;101046.66;4996722;28;45453;-61
2022/11/01 06:13:53;;;;;;;;;2.60;1.00;;;;;14.34;61.08;101059.16;4996144;28;45243;-62
2022/11/01 06:16:18;;;;;;;;;5.80;1.00;;;;;13.54;60.85;100932.88;4996509;28;45709;-62
2022/11/01 06:18:44;;;;;;;;;1.00;1.00;;;;;14.24;61.22;101059.69;4987524;28;45338;-61
2022/11/01 06:21:09;;;;;;;;;4.75;2.75;;;;;14.12;61.10;101036.69;4977346;28;45358;-61
2022/11/01 06:23:35;;;;;;;;;2.00;2.00;;;;;14.29;60.81;101064.56;4976896;28;45366;-61
2022/11/01 06:26:01;;;;;;;;;3.25;0.75;;;;;14.29;61.06;101075.59;4977041;28;45997;-61
2022/11/01 06:28:27;;;;;;;;;1.00;1.00;;;;;14.28;60.79;101066.47;4976628;28;45467;-61
2022/11/01 06:30:52;;;;;;;;;3.00;3.00;;;;;14.27;61.19;101072.22;4977325;28;45467;-61
2022/11/01 06:33:21;;;;;;;;;1.00;1.00;;;;;14.24;60.76;101084.53;4976878;28;45514;-62
2022/11/01 06:35:46;;;;;;;;;2.20;1.00;;;;;14.04;60.82;101052.47;4975271;28;47129;-62
2022/11/01 06:38:12;;;;;;;;;2.75;1.00;;;;;14.23;61.40;101082.88;4976928;28;45347;-61
2022/11/01 06:40:37;;;;;;;;;0.50;0.50;;;;;14.24;61.41;101092.81;4977115;28;45800;-61
2022/11/01 06:43:04;;;;;;;;;3.50;2.00;;;;;14.24;61.03;101092.81;4976934;28;45541;-61
2022/11/01 06:45:30;;;;;;;;;2.20;1.60;;;;;14.19;60.76;101088.00;4976993;28;46072;-60
2022/11/01 06:47:55;;;;;;;;;2.00;1.00;;;;;13.93;61.27;101054.06;4975565;28;45508;-61
2022/11/01 06:50:21;;;;;;;;;1.75;1.00;;;;;14.24;60.96;101112.16;4976024;28;45396;-61
2022/11/01 06:52:46;;;;;;;;;4.50;1.25;;;;;14.26;61.17;101104.50;4976785;28;45625;-62
2022/11/01 06:55:12;;;;;;;;;4.25;0.00;;;;;14.17;61.08;101090.16;4975485;28;45510;-62
2022/11/01 06:57:38;;;;;;;;;4.00;2.00;;;;;13.88;61.24;101070.44;4976721;28;45418;-61
2022/11/01 07:00:04;;;;;;;;;2.25;1.25;;;;;14.19;61.11;101115.59;4976761;28;45300;-62
2022/11/01 07:02:29;;;;;;;;;3.20;1.20;;;;;14.15;61.56;101110.78;4975433;28;45549;-61
2022/11/01 07:04:55;;;;;;;;;2.00;1.50;;;;;14.20;61.27;101121.97;4976532;28;46137;-61
2022/11/01 07:07:20;;;;;;;;;1.00;1.00;;;;;14.18;61.37;101122.19;4975245;28;46050;-62
2022/11/01 07:09:46;;;;;;;;;2.00;1.25;;;;;14.22;61.13;101125.34;4976433;28;45309;-61
2022/11/01 07:12:11;;;;;;;;;3.75;3.75;;;;;14.18;61.62;101113.91;4976858;28;45394;-61
2022/11/01 07:14:37;;;;;;;;;4.50;2.25;;;;;14.14;61.43;101112.66;4958573;28;48107;-63
2022/11/01 07:17:02;;;;;;;;;2.50;1.00;;;;;13.65;61.35;101033.31;4976299;28;45316;-60
2022/11/01 07:19:28;;;;;;;;;2.50;1.00;;;;;14.13;61.04;101116.50;4990848;28;45401;-61
2022/11/01 07:21:53;;;;;;;;;4.00;2.00;;;;;14.21;61.58;101141.06;4996092;28;45667;-61
2022/11/01 07:24:19;;;;;;;;;4.25;2.50;;;;;14.15;61.47;101128.16;4995832;28;47654;-62
2022/11/01 07:26:44;;;;;;;;;2.50;1.00;;;;;14.10;61.63;101133.53;4994165;28;45528;-61
2022/11/01 07:29:10;;;;;;;;;4.00;2.00;;;;;14.25;61.52;101158.00;4996269;28;45476;-61
2022/11/01 07:31:37;;;;;;;;;4.00;2.50;;;;;14.23;61.72;101151.88;4994882;28;45410;-62
2022/11/01 07:34:03;;;;;;;;;1.60;1.20;;;;;14.01;61.28;101115.56;4995187;28;45419;-62
2022/11/01 07:36:29;;;;;;;;;8.60;2.80;;;;;14.30;61.67;101155.41;4994676;28;45243;-61
2022/11/01 07:38:54;;;;;;;;;3.00;2.00;;;;;13.86;61.23;101086.41;4995643;28;45248;-60
2022/11/01 07:41:20;;;;;;;;;3.50;1.50;;;;;14.39;61.38;101157.88;5028077;28;45456;-61
2022/11/01 07:43:45;;;;;;;;;2.00;1.75;;;;;14.38;61.50;101173.63;4994047;28;46164;-64
2022/11/01 07:46:11;;;;;;;;;2.25;1.00;;;;;14.39;61.38;101167.03;4995860;28;45386;-63
2022/11/01 07:48:36;;;;;;;;;2.00;1.00;;;;;14.41;61.04;101162.09;5010976;28;45353;-64
2022/11/01 07:51:04;;;;;;;;;7.50;1.00;;;;;14.39;61.32;101160.63;4995806;28;45936;-65
2022/11/01 07:53:30;;;;;;;;;4.00;2.40;;;;;14.42;60.94;101174.88;4994326;28;45823;-64
2022/11/01 07:55:55;;;;;;;;;1.75;1.00;;;;;14.41;61.55;101167.63;5027237;28;45516;-64
2022/11/01 07:58:21;;;;;;;;;5.00;2.75;;;;;14.45;61.18;101179.94;4995517;28;45476;-63
2022/11/01 08:00:46;;;;;;;;;3.00;3.00;;;;;14.35;60.86;101166.63;5011029;28;45397;-65
2022/11/01 08:03:15;;;;;;;;;1.50;1.50;;;;;14.22;60.59;101145.53;4993898;28;45425;-65
2022/11/01 08:05:41;;;;;;;;;1.00;1.00;;;;;14.27;61.10;101166.06;4995393;28;45391;-65
2022/11/01 08:08:07;;;;;;;;;3.60;2.00;;;;;14.43;61.22;101187.59;4993984;28;45208;-67
2022/11/01 08:10:33;;;;;;;;;2.25;1.75;;;;;14.47;60.94;101188.00;4994664;28;45242;-66
2022/11/01 08:13:01;;;;;;;;;2.50;1.25;;;;;14.36;60.64;101159.22;4982700;28;45985;-66
2022/11/01 08:15:27;;;;;;;;;5.20;1.20;;;;;14.52;61.12;101195.59;4976869;28;45494;-65
2022/11/01 08:17:56;;;;;;;;;2.00;1.00;;;;;14.52;60.92;101190.06;4975557;28;45365;-65
2022/11/01 08:20:22;;;;;;;;;2.40;2.40;;;;;14.37;60.24;101175.53;4994988;28;45681;-64
2022/11/01 08:22:48;;;;;;;;;2.00;2.00;;;;;14.29;60.69;101150.16;4994047;28;45388;-68
2022/11/01 08:25:13;;;;;;;;;2.50;1.50;;;;;14.41;60.33;101173.16;4993849;28;45422;-65
2022/11/01 08:27:39;;;;;;;;;5.25;2.00;;;;;14.47;60.59;101177.78;4995522;28;45421;-67
2022/11/01 08:30:05;;;;;;;;;4.00;3.00;;;;;14.61;60.78;101188.69;4994257;28;45725;-63
2022/11/01 08:32:31;;;;;;;;;6.40;3.00;;;;;14.58;60.48;101187.22;4993155;28;45930;-64
2022/11/01 08:34:56;;;;;;;;;5.00;3.50;;;;;14.43;60.32;101165.50;4995400;28;45500;-65
2022/11/01 08:37:22;;;;;;;;;2.00;2.00;;;;;14.48;60.46;101167.59;4977117;28;45447;-59
2022/11/01 08:39:48;;;;;;;;;3.00;0.75;;;;;14.59;60.15;101174.25;4994012;28;45470;-61
2022/11/01 08:42:13;;;;;;;;;4.00;1.25;;;;;14.69;60.65;101185.66;4994954;28;46145;-63
2022/11/01 08:44:39;;;;;;;;;4.50;2.50;;;;;14.72;60.77;101190.69;5009960;28;45339;-61
2022/11/01 08:47:04;;;;;;;;;3.00;0.75;;;;;14.72;60.45;101190.69;4995055;28;45355;-64
2022/11/01 08:49:30;;;;;;;;;3.50;1.25;;;;;14.76;60.36;101191.97;4994897;28;45136;-61
2022/11/01 08:51:55;;;;;;;;;1.00;1.00;;;;;14.79;59.93;101190.69;4994626;28;45250;-61
2022/11/01 08:54:21;;;;;;;;;2.00;1.25;;;;;14.83;60.21;101193.81;4994160;28;45908;-62
2022/11/01 08:56:47;;;;;;;;;2.75;2.00;;;;;14.87;59.87;101189.50;4995158;28;45204;-62
2022/11/01 08:59:12;;;;;;;;;2.00;1.50;;;;;14.87;59.91;101186.75;5027105;28;45743;-63
2022/11/01 09:01:37;;;;;;;;;1.00;0.00;;;;;14.91;59.62;101191.56;4994578;28;46035;-62
2022/11/01 09:04:04;;;;;;;;;2.00;1.25;;;;;14.68;59.98;101156.31;4994530;28;45244;-64
2022/11/01 09:06:29;;;;;;;;;3.20;2.00;;;;;14.94;59.45;101184.75;4993521;28;45379;-63
2022/11/01 09:08:55;;;;;;;;;2.25;1.75;;;;;14.95;59.15;101183.69;4994979;28;45405;-65
2022/11/01 09:11:21;;;;;;;;;3.75;2.00;;;;;14.95;60.01;101185.59;4994509;28;45681;-62
2022/11/01 09:13:47;;;;;;;;;2.20;1.60;;;;;15.01;59.17;101193.78;4994277;28;45334;-61
2022/11/01 09:16:13;;;;;;;;;1.25;1.25;;;;;15.06;59.24;101183.97;4988285;28;45531;-61
2022/11/01 09:18:38;;;;;;;;;3.25;1.00;;;;;15.08;59.19;101202.03;4984231;28;45425;-61
2022/11/01 09:21:05;;;;;;;;;3.25;1.75;;;;;15.12;58.94;101196.88;4997882;28;46064;-61
2022/11/01 09:23:31;;;;;;;;;1.00;1.00;;;;;14.95;58.85;101164.34;4996474;28;45415;-62
2022/11/01 09:26:07;;;;;;;;;3.75;1.00;;;;;15.18;58.89;101202.34;4996975;28;45389;-65
2022/11/01 09:28:32;;;;;;;;;0.80;0.80;;;;;15.24;58.86;101200.56;5013204;28;45489;-61
2022/11/01 09:31:05;;;;;;;;;4.75;3.75;;;;;15.28;58.77;101203.69;4996494;28;45969;-61
2022/11/01 09:33:31;;;;;;;;;4.00;1.00;;;;;14.91;58.75;101141.00;4997423;28;45375;-61
2022/11/01 09:35:56;;;;;;;;;0.75;0.75;;;;;15.32;58.43;101208.53;4996558;28;45425;-64
2022/11/01 09:38:22;;;;;;;;;2.00;1.00;;;;;15.34;58.54;101207.44;4996418;28;45350;-63
2022/11/01 09:40:56;;;;;;;;;4.50;4.00;;;;;15.35;58.36;101204.47;4997357;28;45719;-62
2022/11/01 09:43:22;;;;;;;;;1.20;1.20;;;;;15.40;58.72;101217.56;4995571;28;45373;-62
2022/11/01 09:45:48;;;;;;;;;1.00;1.00;;;;;15.37;58.70;101220.81;4986550;28;46921;-61
2022/11/01 09:48:16;;;;;;;;;8.40;3.60;;;;;15.47;58.65;101229.41;4938650;28;48668;-61
2022/11/01 09:50:42;;;;;;;;;3.80;1.20;;;;;15.54;58.50;101235.69;4988352;28;45596;-62
2022/11/01 09:53:22;;;;;;;;;2.00;2.00;;;;;15.62;58.61;101225.41;4989492;28;45909;-62
2022/11/01 09:56:09;;;;;;;;;3.60;2.00;;;;;15.68;58.07;101217.00;4987181;28;45445;-62
2022/11/01 09:59:01;;;;;;;;;1.80;1.60;;;;;15.74;58.13;101223.50;4990936;28;45751;-61
2022/11/01 10:01:40;;;;;;;;;1.20;1.20;;;;;15.81;58.00;101217.88;4989783;28;45840;-61
2022/11/01 10:04:19;;;;;;;;;4.80;2.20;;;;;15.85;57.27;101219.94;4989615;28;46027;-62
2022/11/01 10:07:06;;;;;;;;;3.60;1.00;;;;;15.93;57.40;101220.69;4988142;28;45413;-64
2022/11/01 10:09:53;;;;;;;;;0.40;0.00;;;;;16.02;57.16;101227.59;4972125;28;45859;-61
2022/11/01 10:12:46;;;;;;;;;2.80;1.00;;;;;16.19;56.83;101224.13;4970302;28;45422;-62
2022/11/01 10:15:26;;;;;;;;;2.40;1.00;;;;;16.35;56.74;101215.16;4971642;28;45532;-61
2022/11/01 10:17:53;;;;;;;;;7.20;3.20;;;;;16.49;56.09;101210.19;4969949;28;45971;-62
2022/11/01 10:20:36;;;;;;;;;2.00;1.20;;;;;16.74;55.74;101224.88;4975263;28;45468;-63
2022/11/01 10:23:02;;;;;;;;;6.20;3.60;;;;;16.91;55.29;101225.84;4985396;28;47222;-63
2022/11/01 10:25:32;;;;;;;;;3.50;3.50;;;;;17.16;54.63;101232.22;4980423;28;45534;-62
2022/11/01 10:28:00;;;;;;;;;2.00;2.00;;;;;17.32;53.77;101222.28;4988225;28;45450;-63
2022/11/01 10:30:26;;;;;;;;;2.40;0.60;;;;;17.42;53.97;101205.00;4990761;28;45430;-61
2022/11/01 10:33:11;;;;;;;;;2.00;1.00;;;;;18.07;52.38;101221.50;4973213;28;46397;-61
2022/11/01 10:35:44;;;;;;;;;4.40;1.40;;;;;19.94;48.75;101213.75;4969883;28;45516;-63
2022/11/01 10:38:22;;;;;;;;;2.60;2.00;;;;;23.96;41.45;101212.09;4972540;28;45457;-65
2022/11/01 10:40:52;;;;;;;;;0.80;0.80;;;;;26.80;35.45;101222.78;4989391;28;45605;-65
2022/11/01 10:43:19;;;;;;;;;2.80;1.80;;;;;28.76;31.46;101213.75;4990577;28;45480;-61
2022/11/01 10:45:45;;;;;;;;;0.60;0.60;;;;;30.10;29.53;101201.59;4969816;28;45465;-64
2022/11/01 10:48:44;;;;;;;;;3.60;1.00;;;;;31.57;27.23;101205.31;4961361;28;45395;-62
2022/11/01 10:51:10;;;;;;;;;1.60;0.60;;;;;32.56;25.68;101204.09;4958281;28;45641;-61
2022/11/01 10:53:50;;;;;;;;;4.25;1.50;;;;;33.24;24.83;101199.88;4970890;28;45751;-60
2022/11/01 10:56:23;;;;;;;;;1.00;1.00;;;;;34.04;24.23;101190.09;4967686;28;45496;-59
2022/11/01 10:58:49;;;;;;;;;1.20;1.00;;;;;34.50;23.94;101195.38;4953493;28;45518;-66
2022/11/01 11:01:17;;;;;;;;;3.50;1.25;;;;;35.38;22.98;101186.97;4970443;28;45666;-63
2022/11/01 11:03:43;;;;;;;;;3.00;3.00;;;;;36.01;22.10;101179.34;4953086;28;46360;-64
2022/11/01 11:06:10;;;;;;;;;3.25;1.50;;;;;35.86;22.41;101177.41;4970418;28;45492;-61
2022/11/01 11:08:38;;;;;;;;;3.00;1.00;;;;;36.06;21.84;101161.09;4974422;28;45392;-61
2022/11/01 11:11:12;;;;;;;;;2.60;1.80;;;;;36.60;20.89;101181.28;4970418;28;45405;-65
2022/11/01 11:13:38;;;;;;;;;3.80;1.00;;;;;37.11;20.56;101194.38;4985831;28;45547;-62
2022/11/01 11:16:04;;;;;;;;;0.00;0.00;;;;;37.87;20.11;101180.28;4982588;28;45380;-66
2022/11/01 11:18:37;;;;;;;;;1.80;1.40;;;;;38.42;19.26;101192.34;4985355;28;45470;-64
2022/11/01 11:21:12;;;;;;;;;2.80;1.60;;;;;38.46;19.40;101190.34;4988564;28;46129;-62
2022/11/01 11:23:44;;;;;;;;;0.20;0.00;;;;;38.83;18.48;101180.81;4982786;28;45653;-64
2022/11/01 11:26:15;;;;;;;;;2.80;2.80;;;;;37.38;19.90;101184.94;4987453;28;45531;-62
2022/11/01 11:28:44;;;;;;;;;1.80;0.80;;;;;38.17;19.60;101179.41;5003577;28;45556;-64
2022/11/01 11:31:22;;;;;;;;;1.80;1.20;;;;;38.97;17.92;101179.28;4969786;28;45566;-64
2022/11/01 11:34:21;;;;;;;;;2.20;0.80;;;;;37.63;18.86;101182.47;4967112;28;46304;-63
2022/11/01 11:36:48;;;;;;;;;1.80;0.60;;;;;36.29;20.28;101184.00;4967489;28;45416;-62
2022/11/01 11:39:27;;;;;;;;;1.60;1.60;;;;;34.38;22.20;101158.44;4970327;28;45546;-61